Time;durP1;ratioP1;P1;durP2;ratioP2;P2;SDS_P1;SDS_P2;PMS_P1;PMS_P2;Temp;Humidity;BMP_temperature;BMP_pressure;BME280_temperature;BME280_humidity;BME280_pressure;Samples;Min_cycle;Max_cycle;Signal;HPM_P1;HPM_P2
2022/07/06 00:01:30;;;;;;;;;;;;;;;;;;5067372;28;19916;-50
2022/07/06 00:03:56;;;;;;;;;;;;;;;;;;5066543;28;20004;-50
2022/07/06 00:06:22;;;;;;;;;;;;;;;;;;5067625;28;20376;-48
2022/07/06 00:08:49;;;;;;;;;;;;;;;;;;5067199;28;19919;-46
2022/07/06 00:11:15;;;;;;;;;;;;;;;;;;5067423;28;19974;-47
2022/07/06 00:13:41;;;;;;;;;;;;;;;;;;5066858;28;19959;-46
2022/07/06 00:16:08;;;;;;;;;;;;;;;;;;5066993;28;19912;-47
2022/07/06 00:18:33;;;;;;;;;;;;;;;;;;5067152;28;19962;-48
2022/07/06 00:20:59;;;;;;;;;;;;;;;;;;5066832;28;19963;-49
2022/07/06 00:23:25;;;;;;;;;;;;;;;;;;5066843;28;20376;-48
2022/07/06 00:25:51;;;;;;;;;;;;;;;;;;5066631;28;19935;-49
2022/07/06 00:28:17;;;;;;;;;;;;;;;;;;5067484;28;19909;-49
2022/07/06 00:30:43;;;;;;;;;;;;;;;;;;5066783;28;19915;-49
2022/07/06 00:33:09;;;;;;;;;;;;;;;;;;5067128;28;19912;-47
2022/07/06 00:35:35;;;;;;;;;;;;;;;;;;5066979;28;20303;-48
2022/07/06 00:38:02;;;;;;;;;;;;;;;;;;5066537;28;19935;-50
2022/07/06 00:40:29;;;;;;;;;;;;;;;;;;5066508;28;19909;-46
2022/07/06 00:42:55;;;;;;;;;;;;;;;;;;5066661;28;19928;-48
2022/07/06 00:45:21;;;;;;;;;;;;;;;;;;5066980;28;19912;-49
2022/07/06 00:47:48;;;;;;;;;;;;;;;;;;5066987;28;20505;-48
2022/07/06 00:50:14;;;;;;;;;;;;;;;;;;5067028;28;19959;-47
2022/07/06 00:52:40;;;;;;;;;;;;;;;;;;5066670;28;19983;-48
2022/07/06 00:55:05;;;;;;;;;;;;;;;;;;5066779;28;19916;-47
2022/07/06 00:57:32;;;;;;;;;;;;;;;;;;5067054;28;20003;-47
2022/07/06 00:59:58;;;;;;;;;;;;;;;;;;5066421;28;19909;-48
2022/07/06 01:02:24;;;;;;;;;;;;;;;;;;5066892;28;19909;-48
2022/07/06 01:04:50;;;;;;;;;;;;;;;;;;5066266;28;20342;-48
2022/07/06 01:07:17;;;;;;;;;;;;;;;;;;5066934;28;19966;-48
2022/07/06 01:09:43;;;;;;;;;;;;;;;;;;5066352;28;20003;-47
2022/07/06 01:12:09;;;;;;;;;;;;;;;;;;5066592;28;19936;-47
2022/07/06 01:14:35;;;;;;;;;;;;;;;;;;5066582;28;19958;-47
2022/07/06 01:17:01;;;;;;;;;;;;;;;;;;5066418;28;19935;-46
2022/07/06 01:19:27;;;;;;;;;;;;;;;;;;5066677;28;19956;-46
2022/07/06 01:21:53;;;;;;;;;;;;;;;;;;5066326;28;20228;-47
2022/07/06 01:24:19;;;;;;;;;;;;;;;;;;5066455;28;20022;-48
2022/07/06 01:26:45;;;;;;;;;;;;;;;;;;5066076;28;19909;-49
2022/07/06 01:29:11;;;;;;;;;;;;;;;;;;5066905;28;19974;-48
2022/07/06 01:31:36;;;;;;;;;;;;;;;;;;5066411;28;19908;-46
2022/07/06 01:34:03;;;;;;;;;;;;;;;;;;5066291;28;19908;-45
2022/07/06 01:36:29;;;;;;;;;;;;;;;;;;5066436;28;19915;-47
2022/07/06 01:38:57;;;;;;;;;;;;;;;;;;5066178;28;20011;-47
2022/07/06 01:41:23;;;;;;;;;;;;;;;;;;5066350;28;19951;-49
2022/07/06 01:43:49;;;;;;;;;;;;;;;;;;5066472;28;19973;-47
2022/07/06 01:46:15;;;;;;;;;;;;;;;;;;5066362;28;20409;-47
2022/07/06 01:48:41;;;;;;;;;;;;;;;;;;5065888;28;19962;-48
2022/07/06 01:51:07;;;;;;;;;;;;;;;;;;5068423;28;19908;-50
2022/07/06 01:53:34;;;;;;;;;;;;;;;;;;5069908;28;20003;-51
2022/07/06 01:56:00;;;;;;;;;;;;;;;;;;5069550;28;20003;-48
2022/07/06 01:58:26;;;;;;;;;;;;;;;;;;5069949;28;20425;-49
2022/07/06 02:00:52;;;;;;;;;;;;;;;;;;5069469;28;19919;-48
2022/07/06 02:03:17;;;;;;;;;;;;;;;;;;5069678;28;19909;-48
2022/07/06 02:05:43;;;;;;;;;;;;;;;;;;5069144;28;19963;-47
2022/07/06 02:08:09;;;;;;;;;;;;;;;;;;5069783;28;19953;-49
2022/07/06 02:10:36;;;;;;;;;;;;;;;;;;5069516;28;19920;-47
2022/07/06 02:13:02;;;;;;;;;;;;;;;;;;5069969;28;19935;-49
2022/07/06 02:15:28;;;;;;;;;;;;;;;;;;5069435;28;19913;-49
2022/07/06 02:17:55;;;;;;;;;;;;;;;;;;5069073;28;19918;-49
2022/07/06 02:20:22;;;;;;;;;;;;;;;;;;5070038;28;19919;-48
2022/07/06 02:22:48;;;;;;;;;;;;;;;;;;5069510;28;19909;-49
2022/07/06 02:25:14;;;;;;;;;;;;;;;;;;5068969;28;19931;-48
2022/07/06 02:27:41;;;;;;;;;;;;;;;;;;5069145;28;19916;-49
2022/07/06 02:30:07;;;;;;;;;;;;;;;;;;5069152;28;20499;-48
2022/07/06 02:32:34;;;;;;;;;;;;;;;;;;5069209;28;20010;-50
2022/07/06 02:35:00;;;;;;;;;;;;;;;;;;5068745;28;20395;-50
2022/07/06 02:37:26;;;;;;;;;;;;;;;;;;5069024;28;19923;-49
2022/07/06 02:39:52;;;;;;;;;;;;;;;;;;5068744;28;19951;-48
2022/07/06 02:42:18;;;;;;;;;;;;;;;;;;5069505;28;19943;-47
2022/07/06 02:44:43;;;;;;;;;;;;;;;;;;5068580;28;20295;-46
2022/07/06 02:47:09;;;;;;;;;;;;;;;;;;5068796;28;19909;-47
2022/07/06 02:49:35;;;;;;;;;;;;;;;;;;5068462;28;20349;-50
2022/07/06 02:52:01;;;;;;;;;;;;;;;;;;5068786;28;19924;-51
2022/07/06 02:54:27;;;;;;;;;;;;;;;;;;5068436;28;19913;-48
2022/07/06 02:56:53;;;;;;;;;;;;;;;;;;5068749;28;19954;-50
2022/07/06 02:59:19;;;;;;;;;;;;;;;;;;5068983;28;19909;-49
2022/07/06 03:01:45;;;;;;;;;;;;;;;;;;5067576;28;20441;-47
2022/07/06 03:04:11;;;;;;;;;;;;;;;;;;5068263;28;20187;-48
2022/07/06 03:06:37;;;;;;;;;;;;;;;;;;5068838;28;19912;-47
2022/07/06 03:09:02;;;;;;;;;;;;;;;;;;5068460;28;19999;-46
2022/07/06 03:11:29;;;;;;;;;;;;;;;;;;5068517;28;20428;-49
2022/07/06 03:13:55;;;;;;;;;;;;;;;;;;5068152;28;20206;-47
2022/07/06 03:16:21;;;;;;;;;;;;;;;;;;5067352;28;19917;-47
2022/07/06 03:18:47;;;;;;;;;;;;;;;;;;5068235;28;19912;-47
2022/07/06 03:21:13;;;;;;;;;;;;;;;;;;5068442;28;19935;-49
2022/07/06 03:23:39;;;;;;;;;;;;;;;;;;5067710;28;19912;-46
2022/07/06 03:26:05;;;;;;;;;;;;;;;;;;5068320;28;19936;-47
2022/07/06 03:28:31;;;;;;;;;;;;;;;;;;5067655;28;19912;-49
2022/07/06 03:30:57;;;;;;;;;;;;;;;;;;5068222;28;19912;-48
2022/07/06 03:33:24;;;;;;;;;;;;;;;;;;5066134;28;20374;-50
2022/07/06 03:35:50;;;;;;;;;;;;;;;;;;5067743;28;19908;-48
2022/07/06 03:38:16;;;;;;;;;;;;;;;;;;5068203;28;19919;-46
2022/07/06 03:40:42;;;;;;;;;;;;;;;;;;5068178;28;19912;-50
2022/07/06 03:43:08;;;;;;;;;;;;;;;;;;5067879;28;19915;-48
2022/07/06 03:45:34;;;;;;;;;;;;;;;;;;5067257;28;19909;-47
2022/07/06 03:48:00;;;;;;;;;;;;;;;;;;5067285;28;20000;-48
2022/07/06 03:50:26;;;;;;;;;;;;;;;;;;5067205;28;20019;-51
2022/07/06 03:52:52;;;;;;;;;;;;;;;;;;5067690;28;19913;-49
2022/07/06 03:55:18;;;;;;;;;;;;;;;;;;5067534;28;19954;-46
2022/07/06 03:57:44;;;;;;;;;;;;;;;;;;5067965;28;19912;-50
2022/07/06 04:00:10;;;;;;;;;;;;;;;;;;5067622;28;19912;-48
2022/07/06 04:02:36;;;;;;;;;;;;;;;;;;5067002;28;19919;-47
2022/07/06 04:05:02;;;;;;;;;;;;;;;;;;5067058;28;19932;-47
2022/07/06 04:07:28;;;;;;;;;;;;;;;;;;5067236;28;19917;-49
2022/07/06 04:09:54;;;;;;;;;;;;;;;;;;5067327;28;19966;-47
2022/07/06 04:12:20;;;;;;;;;;;;;;;;;;5067255;28;19908;-47
2022/07/06 04:14:46;;;;;;;;;;;;;;;;;;5067410;28;19948;-48
2022/07/06 04:19:56;;;;;;;;;;;;;;;;;;5067057;28;19919;-50
2022/07/06 04:22:22;;;;;;;;;;;;;;;;;;5067072;28;19913;-46
2022/07/06 04:24:48;;;;;;;;;;;;;;;;;;5066922;28;19916;-48
2022/07/06 04:27:14;;;;;;;;;;;;;;;;;;5067115;28;19947;-46
2022/07/06 04:29:40;;;;;;;;;;;;;;;;;;5066842;28;19919;-50
2022/07/06 04:32:07;;;;;;;;;;;;;;;;;;5066565;28;19917;-46
2022/07/06 04:34:33;;;;;;;;;;;;;;;;;;5066988;28;19951;-47
2022/07/06 04:36:58;;;;;;;;;;;;;;;;;;5067289;28;19959;-46
2022/07/06 04:39:24;;;;;;;;;;;;;;;;;;5066931;28;19916;-47
2022/07/06 04:41:50;;;;;;;;;;;;;;;;;;5066958;28;20375;-46
2022/07/06 04:44:16;;;;;;;;;;;;;;;;;;5066977;28;19957;-48
2022/07/06 04:46:42;;;;;;;;;;;;;;;;;;5066632;28;19912;-48
2022/07/06 04:49:09;;;;;;;;;;;;;;;;;;5066540;28;19924;-50
2022/07/06 04:51:35;;;;;;;;;;;;;;;;;;5066741;28;19951;-46
2022/07/06 04:54:01;;;;;;;;;;;;;;;;;;5066948;28;19944;-49
2022/07/06 04:56:26;;;;;;;;;;;;;;;;;;5054624;28;19917;-48
2022/07/06 04:58:52;;;;;;;;;;;;;;;;;;5067154;28;19936;-47
2022/07/06 05:01:18;;;;;;;;;;;;;;;;;;5063088;28;20015;-47
2022/07/06 05:03:44;;;;;;;;;;;;;;;;;;5068108;28;19908;-47
2022/07/06 05:06:10;;;;;;;;;;;;;;;;;;5067754;28;20066;-47
2022/07/06 05:08:36;;;;;;;;;;;;;;;;;;5067675;28;19913;-47
2022/07/06 05:11:02;;;;;;;;;;;;;;;;;;5068360;28;19931;-50
2022/07/06 05:13:28;;;;;;;;;;;;;;;;;;5058946;28;20291;-49
2022/07/06 05:15:54;;;;;;;;;;;;;;;;;;5057074;28;19983;-49
2022/07/06 05:18:20;;;;;;;;;;;;;;;;;;5067999;28;19916;-47
2022/07/06 05:20:46;;;;;;;;;;;;;;;;;;5080802;28;19955;-45
2022/07/06 05:23:12;;;;;;;;;;;;;;;;;;5088137;28;19908;-47
2022/07/06 05:25:38;;;;;;;;;;;;;;;;;;5089270;28;19912;-48
2022/07/06 05:28:04;;;;;;;;;;;;;;;;;;5092431;28;19908;-49
2022/07/06 05:30:30;;;;;;;;;;;;;;;;;;5091751;28;20295;-49
2022/07/06 05:32:56;;;;;;;;;;;;;;;;;;5092124;28;19957;-49
2022/07/06 05:35:22;;;;;;;;;;;;;;;;;;5072961;28;19913;-47
2022/07/06 05:37:48;;;;;;;;;;;;;;;;;;5071691;28;19912;-48
2022/07/06 05:40:14;;;;;;;;;;;;;;;;;;5071910;28;20022;-47
2022/07/06 05:42:40;;;;;;;;;;;;;;;;;;5070312;28;19908;-49
2022/07/06 05:45:06;;;;;;;;;;;;;;;;;;5059581;28;19963;-50
2022/07/06 05:50:17;;;;;;;;;;;;;;;;;;5051379;28;19927;-47
2022/07/06 05:52:44;;;;;;;;;;;;;;;;;;5066645;28;20702;-47
2022/07/06 05:55:10;;;;;;;;;;;;;;;;;;5071333;28;19985;-47
2022/07/06 05:57:36;;;;;;;;;;;;;;;;;;5069409;28;20357;-47
2022/07/06 06:00:02;;;;;;;;;;;;;;;;;;5069856;28;19948;-50
2022/07/06 06:02:28;;;;;;;;;;;;;;;;;;5069338;28;19913;-47
2022/07/06 06:04:53;;;;;;;;;;;;;;;;;;5069666;28;20007;-50
2022/07/06 06:07:20;;;;;;;;;;;;;;;;;;5069452;28;19908;-47
2022/07/06 06:09:46;;;;;;;;;;;;;;;;;;5069737;28;19913;-46
2022/07/06 06:12:12;;;;;;;;;;;;;;;;;;5069150;28;19912;-47
2022/07/06 06:14:38;;;;;;;;;;;;;;;;;;5069192;28;19912;-48
2022/07/06 06:17:08;;;;;;;;;;;;;;;;;;5069648;28;20002;-47
2022/07/06 06:19:36;;;;;;;;;;;;;;;;;;5069173;28;19982;-47
2022/07/06 06:22:02;;;;;;;;;;;;;;;;;;5069545;28;19933;-51
2022/07/06 06:24:28;;;;;;;;;;;;;;;;;;5055610;28;20409;-50
2022/07/06 06:26:54;;;;;;;;;;;;;;;;;;5050342;28;19916;-49
2022/07/06 06:29:20;;;;;;;;;;;;;;;;;;5050304;28;19913;-48
2022/07/06 06:31:45;;;;;;;;;;;;;;;;;;5048940;28;19924;-49
2022/07/06 06:34:12;;;;;;;;;;;;;;;;;;5062045;28;20376;-49
2022/07/06 06:36:38;;;;;;;;;;;;;;;;;;5071168;28;20399;-49
2022/07/06 06:39:04;;;;;;;;;;;;;;;;;;5071374;28;19919;-47
2022/07/06 06:41:30;;;;;;;;;;;;;;;;;;5061777;28;20409;-48
2022/07/06 06:43:56;;;;;;;;;;;;;;;;;;5052491;28;20391;-50
2022/07/06 06:46:22;;;;;;;;;;;;;;;;;;5050249;28;19908;-51
2022/07/06 06:48:48;;;;;;;;;;;;;;;;;;5050907;28;19943;-48
2022/07/06 06:51:13;;;;;;;;;;;;;;;;;;5054912;28;19990;-48
2022/07/06 06:53:40;;;;;;;;;;;;;;;;;;5062437;28;19916;-48
2022/07/06 06:56:06;;;;;;;;;;;;;;;;;;5054374;28;20707;-46
2022/07/06 06:58:32;;;;;;;;;;;;;;;;;;5052925;28;20363;-47
2022/07/06 07:00:59;;;;;;;;;;;;;;;;;;5064139;28;19912;-46
2022/07/06 07:03:25;;;;;;;;;;;;;;;;;;5049640;28;19909;-51
2022/07/06 07:05:52;;;;;;;;;;;;;;;;;;5065986;28;19916;-48
2022/07/06 07:08:19;;;;;;;;;;;;;;;;;;5060389;28;19924;-50
2022/07/06 07:10:44;;;;;;;;;;;;;;;;;;5059285;28;19924;-49
2022/07/06 07:13:10;;;;;;;;;;;;;;;;;;5059952;28;19919;-49
2022/07/06 07:15:36;;;;;;;;;;;;;;;;;;5056456;28;19917;-48
2022/07/06 07:18:02;;;;;;;;;;;;;;;;;;5051462;28;19960;-48
2022/07/06 07:20:29;;;;;;;;;;;;;;;;;;5050484;28;19966;-49
2022/07/06 07:22:55;;;;;;;;;;;;;;;;;;5067117;28;19954;-47
2022/07/06 07:25:21;;;;;;;;;;;;;;;;;;5071135;28;19944;-47
2022/07/06 07:27:47;;;;;;;;;;;;;;;;;;5078286;28;19916;-49
2022/07/06 07:30:13;;;;;;;;;;;;;;;;;;5075181;28;19916;-51
2022/07/06 07:32:42;;;;;;;;;;;;;;;;;;5056075;28;19916;-48
2022/07/06 07:35:08;;;;;;;;;;;;;;;;;;5048872;28;20387;-46
2022/07/06 07:37:34;;;;;;;;;;;;;;;;;;5063307;28;19970;-48
2022/07/06 07:40:00;;;;;;;;;;;;;;;;;;5056807;28;19912;-47
2022/07/06 07:42:26;;;;;;;;;;;;;;;;;;5055119;28;19913;-48
2022/07/06 07:44:53;;;;;;;;;;;;;;;;;;5068744;28;19916;-47
2022/07/06 07:47:19;;;;;;;;;;;;;;;;;;5068715;28;20323;-48
2022/07/06 07:49:45;;;;;;;;;;;;;;;;;;5057278;28;19928;-47
2022/07/06 07:52:11;;;;;;;;;;;;;;;;;;5048976;28;20391;-48
2022/07/06 07:54:38;;;;;;;;;;;;;;;;;;5048544;28;19920;-47
2022/07/06 07:57:04;;;;;;;;;;;;;;;;;;5048705;28;19996;-47
2022/07/06 07:59:31;;;;;;;;;;;;;;;;;;5049489;28;20008;-47
2022/07/06 08:01:58;;;;;;;;;;;;;;;;;;5074326;28;20394;-47
2022/07/06 08:04:23;;;;;;;;;;;;;;;;;;5062629;28;20020;-47
2022/07/06 08:06:49;;;;;;;;;;;;;;;;;;5066518;28;20535;-47
2022/07/06 08:09:16;;;;;;;;;;;;;;;;;;5058736;28;19961;-47
2022/07/06 08:11:42;;;;;;;;;;;;;;;;;;5049064;28;19944;-51
2022/07/06 08:14:08;;;;;;;;;;;;;;;;;;5048013;28;20371;-51
2022/07/06 08:16:34;;;;;;;;;;;;;;;;;;5048484;28;19995;-46
2022/07/06 08:19:00;;;;;;;;;;;;;;;;;;5050042;28;19917;-47
2022/07/06 08:21:25;;;;;;;;;;;;;;;;;;5048105;28;19919;-46
2022/07/06 08:23:51;;;;;;;;;;;;;;;;;;5048105;28;19920;-47
2022/07/06 08:26:17;;;;;;;;;;;;;;;;;;5053077;28;19916;-47
2022/07/06 08:28:43;;;;;;;;;;;;;;;;;;5061971;28;19916;-47
2022/07/06 08:31:09;;;;;;;;;;;;;;;;;;5066889;28;20003;-47
2022/07/06 08:33:35;;;;;;;;;;;;;;;;;;5052375;28;19916;-48
2022/07/06 08:36:01;;;;;;;;;;;;;;;;;;5060995;28;19919;-46
2022/07/06 08:38:27;;;;;;;;;;;;;;;;;;5058400;28;19920;-48
2022/07/06 08:40:54;;;;;;;;;;;;;;;;;;5062499;28;19927;-45
2022/07/06 08:43:20;;;;;;;;;;;;;;;;;;5060923;28;19920;-47
2022/07/06 08:45:46;;;;;;;;;;;;;;;;;;5062332;28;19932;-46
2022/07/06 08:48:12;;;;;;;;;;;;;;;;;;5061022;28;20008;-48
2022/07/06 08:50:38;;;;;;;;;;;;;;;;;;5061839;28;19916;-47
2022/07/06 08:53:04;;;;;;;;;;;;;;;;;;5061829;28;19965;-47
2022/07/06 08:55:30;;;;;;;;;;;;;;;;;;5064171;28;19920;-47
2022/07/06 08:57:56;;;;;;;;;;;;;;;;;;5063832;28;19912;-50
2022/07/06 09:00:22;;;;;;;;;;;;;;;;;;5062749;28;20015;-49
2022/07/06 09:02:50;;;;;;;;;;;;;;;;;;5063030;28;19920;-48
2022/07/06 09:05:16;;;;;;;;;;;;;;;;;;5066397;28;19931;-47
2022/07/06 09:07:43;;;;;;;;;;;;;;;;;;5064751;28;19912;-49
2022/07/06 09:10:08;;;;;;;;;;;;;;;;;;5066590;28;20002;-49
2022/07/06 09:12:35;;;;;;;;;;;;;;;;;;5063557;28;19958;-47
2022/07/06 09:15:02;;;;;;;;;;;;;;;;;;5064831;28;19956;-48
2022/07/06 09:17:28;;;;;;;;;;;;;;;;;;5064558;28;19921;-47
2022/07/06 09:19:54;;;;;;;;;;;;;;;;;;5066019;28;19919;-50
2022/07/06 09:22:20;;;;;;;;;;;;;;;;;;5062915;28;19923;-48
2022/07/06 09:24:46;;;;;;;;;;;;;;;;;;5064662;28;19920;-48
2022/07/06 09:27:12;;;;;;;;;;;;;;;;;;5063768;28;20402;-48
2022/07/06 09:29:38;;;;;;;;;;;;;;;;;;5064313;28;20010;-50
2022/07/06 09:32:05;;;;;;;;;;;;;;;;;;5062276;28;19916;-49
2022/07/06 09:34:31;;;;;;;;;;;;;;;;;;5060936;28;19967;-50
2022/07/06 09:36:58;;;;;;;;;;;;;;;;;;5063100;28;19967;-47
2022/07/06 09:39:24;;;;;;;;;;;;;;;;;;5064477;28;19920;-50
2022/07/06 09:41:50;;;;;;;;;;;;;;;;;;5062469;28;20428;-47
2022/07/06 09:44:16;;;;;;;;;;;;;;;;;;5064451;28;19923;-48
2022/07/06 09:46:42;;;;;;;;;;;;;;;;;;5064202;28;20220;-48
2022/07/06 09:49:08;;;;;;;;;;;;;;;;;;5063838;28;19917;-48
2022/07/06 09:51:34;;;;;;;;;;;;;;;;;;5062605;28;19917;-47
2022/07/06 09:54:00;;;;;;;;;;;;;;;;;;5062359;28;19922;-50
2022/07/06 09:56:26;;;;;;;;;;;;;;;;;;5063612;28;20399;-46
2022/07/06 09:58:52;;;;;;;;;;;;;;;;;;5063737;28;19942;-46
2022/07/06 10:01:19;;;;;;;;;;;;;;;;;;5063018;28;19920;-49
2022/07/06 10:03:45;;;;;;;;;;;;;;;;;;5062842;28;19920;-49
2022/07/06 10:06:11;;;;;;;;;;;;;;;;;;5063247;28;19921;-47
2022/07/06 10:08:37;;;;;;;;;;;;;;;;;;5063584;28;19947;-47
2022/07/06 10:11:03;;;;;;;;;;;;;;;;;;5063344;28;19908;-48
2022/07/06 10:13:29;;;;;;;;;;;;;;;;;;5062315;28;20537;-47
2022/07/06 10:15:57;;;;;;;;;;;;;;;;;;5063710;28;19924;-47
2022/07/06 10:18:24;;;;;;;;;;;;;;;;;;5063547;28;19923;-47
2022/07/06 10:20:50;;;;;;;;;;;;;;;;;;5063460;28;19916;-47
2022/07/06 10:23:16;;;;;;;;;;;;;;;;;;5062354;28;19916;-46
2022/07/06 10:25:42;;;;;;;;;;;;;;;;;;5063986;28;19915;-48
2022/07/06 10:28:14;;;;;;;;;;;;;;;;;;5063442;28;20395;-48
2022/07/06 10:30:40;;;;;;;;;;;;;;;;;;5061591;28;19921;-47
2022/07/06 10:33:06;;;;;;;;;;;;;;;;;;5061822;28;19924;-47
2022/07/06 10:35:32;;;;;;;;;;;;;;;;;;5055344;28;20039;-47
2022/07/06 10:37:58;;;;;;;;;;;;;;;;;;5067708;28;19923;-46
2022/07/06 10:43:09;;;;;;;;;;;;;;;;;;5069747;28;19919;-48
2022/07/06 10:45:35;;;;;;;;;;;;;;;;;;5069503;28;20268;-47
2022/07/06 10:48:01;;;;;;;;;;;;;;;;;;5069919;28;19962;-47
2022/07/06 10:50:27;;;;;;;;;;;;;;;;;;5069964;28;20294;-48
2022/07/06 10:52:53;;;;;;;;;;;;;;;;;;5070292;28;19916;-47
2022/07/06 10:55:18;;;;;;;;;;;;;;;;;;5069504;28;19916;-47
2022/07/06 10:57:44;;;;;;;;;;;;;;;;;;5070038;28;20007;-49
2022/07/06 11:00:12;;;;;;;;;;;;;;;;;;5069708;28;20433;-46
2022/07/06 11:02:39;;;;;;;;;;;;;;;;;;5069704;28;20307;-47
2022/07/06 11:05:05;;;;;;;;;;;;;;;;;;5069641;28;19916;-46
2022/07/06 11:07:31;;;;;;;;;;;;;;;;;;5069265;28;19917;-47
2022/07/06 11:09:56;;;;;;;;;;;;;;;;;;5050930;28;19924;-47
2022/07/06 11:12:22;;;;;;;;;;;;;;;;;;5049309;28;19909;-49
2022/07/06 11:14:48;;;;;;;;;;;;;;;;;;5060313;28;20371;-48
2022/07/06 11:17:14;;;;;;;;;;;;;;;;;;5070112;28;19919;-47
2022/07/06 11:19:40;;;;;;;;;;;;;;;;;;5061081;28;20382;-50
2022/07/06 11:22:06;;;;;;;;;;;;;;;;;;5060681;28;20435;-46
2022/07/06 11:24:33;;;;;;;;;;;;;;;;;;5068350;28;19912;-47
2022/07/06 11:26:59;;;;;;;;;;;;;;;;;;5054959;28;19923;-48
2022/07/06 11:29:26;;;;;;;;;;;;;;;;;;5069171;28;20513;-47
2022/07/06 11:31:55;;;;;;;;;;;;;;;;;;5069288;28;19919;-47
2022/07/06 11:34:21;;;;;;;;;;;;;;;;;;5068834;28;19939;-49
2022/07/06 11:36:47;;;;;;;;;;;;;;;;;;5054050;28;19917;-47
2022/07/06 11:39:13;;;;;;;;;;;;;;;;;;5049356;28;20308;-47
2022/07/06 11:41:39;;;;;;;;;;;;;;;;;;5048769;28;19913;-47
2022/07/06 11:44:05;;;;;;;;;;;;;;;;;;5049262;28;19919;-46
2022/07/06 11:46:31;;;;;;;;;;;;;;;;;;5048829;28;19916;-47
2022/07/06 11:48:57;;;;;;;;;;;;;;;;;;5049010;28;19919;-46
2022/07/06 11:51:23;;;;;;;;;;;;;;;;;;5048860;28;19909;-48
2022/07/06 11:53:49;;;;;;;;;;;;;;;;;;5060340;28;19913;-49
2022/07/06 11:56:15;;;;;;;;;;;;;;;;;;5047735;28;19917;-48
2022/07/06 11:58:43;;;;;;;;;;;;;;;;;;5058090;28;20379;-48
2022/07/06 12:01:09;;;;;;;;;;;;;;;;;;5068623;28;19931;-46
2022/07/06 12:03:35;;;;;;;;;;;;;;;;;;5069694;28;19916;-47
2022/07/06 12:06:01;;;;;;;;;;;;;;;;;;5068438;28;19998;-48
2022/07/06 12:08:27;;;;;;;;;;;;;;;;;;5058752;28;19913;-49
2022/07/06 12:10:55;;;;;;;;;;;;;;;;;;5049233;28;20187;-51
2022/07/06 12:13:21;;;;;;;;;;;;;;;;;;5048680;28;19917;-47
2022/07/06 12:15:47;;;;;;;;;;;;;;;;;;5048485;28;19913;-49
2022/07/06 12:18:13;;;;;;;;;;;;;;;;;;5048613;28;19920;-50
2022/07/06 12:20:38;;;;;;;;;;;;;;;;;;5067807;28;19912;-49
2022/07/06 12:23:04;;;;;;;;;;;;;;;;;;5059942;28;19920;-50
2022/07/06 12:25:30;;;;;;;;;;;;;;;;;;5048095;28;19948;-51
2022/07/06 12:27:56;;;;;;;;;;;;;;;;;;5048397;28;20225;-48
2022/07/06 12:30:22;;;;;;;;;;;;;;;;;;5048010;28;20308;-49
2022/07/06 12:32:48;;;;;;;;;;;;;;;;;;5048342;28;19916;-51
2022/07/06 12:35:14;;;;;;;;;;;;;;;;;;5048293;28;19909;-48
2022/07/06 12:37:40;;;;;;;;;;;;;;;;;;5049024;28;20408;-51
2022/07/06 12:40:06;;;;;;;;;;;;;;;;;;5047902;28;19921;-48
2022/07/06 12:42:33;;;;;;;;;;;;;;;;;;5059194;28;19958;-46
2022/07/06 12:44:59;;;;;;;;;;;;;;;;;;5060763;28;20401;-49
2022/07/06 12:47:25;;;;;;;;;;;;;;;;;;5058818;28;20102;-48
2022/07/06 12:49:51;;;;;;;;;;;;;;;;;;5049899;28;20466;-47
2022/07/06 12:52:18;;;;;;;;;;;;;;;;;;5062501;28;19917;-48
2022/07/06 12:54:44;;;;;;;;;;;;;;;;;;5050468;28;19909;-47
2022/07/06 12:57:12;;;;;;;;;;;;;;;;;;5055071;28;19913;-46
2022/07/06 12:59:38;;;;;;;;;;;;;;;;;;5045977;28;19917;-46
2022/07/06 13:02:05;;;;;;;;;;;;;;;;;;5059948;28;20283;-47
2022/07/06 13:04:34;;;;;;;;;;;;;;;;;;5052736;28;20301;-49
2022/07/06 13:07:01;;;;;;;;;;;;;;;;;;5056216;28;19913;-47
2022/07/06 13:09:26;;;;;;;;;;;;;;;;;;5059697;28;20284;-45
2022/07/06 13:11:52;;;;;;;;;;;;;;;;;;5054534;28;19927;-45
2022/07/06 13:14:18;;;;;;;;;;;;;;;;;;5055453;28;19916;-45
2022/07/06 13:16:44;;;;;;;;;;;;;;;;;;5059887;28;19966;-46
2022/07/06 13:19:10;;;;;;;;;;;;;;;;;;5059186;28;19965;-44
2022/07/06 13:21:36;;;;;;;;;;;;;;;;;;5058066;28;19917;-45
2022/07/06 13:24:03;;;;;;;;;;;;;;;;;;5062975;28;19940;-46
2022/07/06 13:26:29;;;;;;;;;;;;;;;;;;5058344;28;19927;-46
2022/07/06 13:28:55;;;;;;;;;;;;;;;;;;5056578;28;19912;-45
2022/07/06 13:31:21;;;;;;;;;;;;;;;;;;5054273;28;19913;-44
2022/07/06 13:33:48;;;;;;;;;;;;;;;;;;5048755;28;19956;-45
2022/07/06 13:36:14;;;;;;;;;;;;;;;;;;5058315;28;19917;-43
2022/07/06 13:38:40;;;;;;;;;;;;;;;;;;5050610;28;19927;-45
2022/07/06 13:41:06;;;;;;;;;;;;;;;;;;5047705;28;19917;-45
2022/07/06 13:43:35;;;;;;;;;;;;;;;;;;5061024;28;20383;-45
2022/07/06 13:46:01;;;;;;;;;;;;;;;;;;5057006;28;19920;-45
2022/07/06 13:48:27;;;;;;;;;;;;;;;;;;5055157;28;19917;-46
2022/07/06 13:50:53;;;;;;;;;;;;;;;;;;5052541;28;20284;-44
2022/07/06 13:53:20;;;;;;;;;;;;;;;;;;5063452;28;19917;-44
2022/07/06 13:55:46;;;;;;;;;;;;;;;;;;5062802;28;19923;-43
2022/07/06 13:58:12;;;;;;;;;;;;;;;;;;5060181;28;20011;-46
2022/07/06 14:00:38;;;;;;;;;;;;;;;;;;5068747;28;20369;-45
2022/07/06 14:03:04;;;;;;;;;;;;;;;;;;5065093;28;20007;-48
2022/07/06 14:05:30;;;;;;;;;;;;;;;;;;5059637;28;19916;-45
2022/07/06 14:07:56;;;;;;;;;;;;;;;;;;5061358;28;19974;-45
2022/07/06 14:10:23;;;;;;;;;;;;;;;;;;5055893;28;19925;-47
2022/07/06 14:12:50;;;;;;;;;;;;;;;;;;5060417;28;19952;-45
2022/07/06 14:15:16;;;;;;;;;;;;;;;;;;5058640;28;19923;-47
2022/07/06 14:17:42;;;;;;;;;;;;;;;;;;5052741;28;19921;-44
2022/07/06 14:20:08;;;;;;;;;;;;;;;;;;5051699;28;19977;-45
2022/07/06 14:22:34;;;;;;;;;;;;;;;;;;5066795;28;19912;-45
2022/07/06 14:25:00;;;;;;;;;;;;;;;;;;5054195;28;19916;-45
2022/07/06 14:27:26;;;;;;;;;;;;;;;;;;5057542;28;19923;-47
2022/07/06 14:29:52;;;;;;;;;;;;;;;;;;5059276;28;20322;-46
2022/07/06 14:32:17;;;;;;;;;;;;;;;;;;5059980;28;20422;-46
2022/07/06 14:34:43;;;;;;;;;;;;;;;;;;5058114;28;19912;-45
2022/07/06 14:37:10;;;;;;;;;;;;;;;;;;5058174;28;19939;-45
2022/07/06 14:39:36;;;;;;;;;;;;;;;;;;5050453;28;19917;-45
2022/07/06 14:42:02;;;;;;;;;;;;;;;;;;5055924;28;20323;-48
2022/07/06 14:44:28;;;;;;;;;;;;;;;;;;5055582;28;19916;-47
2022/07/06 14:46:54;;;;;;;;;;;;;;;;;;5063660;28;19956;-45
2022/07/06 14:49:21;;;;;;;;;;;;;;;;;;5063553;28;19916;-45
2022/07/06 14:51:47;;;;;;;;;;;;;;;;;;5062788;28;19952;-46
2022/07/06 14:54:14;;;;;;;;;;;;;;;;;;5065060;28;19960;-46
2022/07/06 14:56:39;;;;;;;;;;;;;;;;;;5055506;28;19989;-45
2022/07/06 14:59:06;;;;;;;;;;;;;;;;;;5057514;28;19963;-45
2022/07/06 15:01:32;;;;;;;;;;;;;;;;;;5055406;28;19939;-45
2022/07/06 15:03:58;;;;;;;;;;;;;;;;;;5062256;28;19916;-47
2022/07/06 15:06:25;;;;;;;;;;;;;;;;;;5058290;28;19970;-45
2022/07/06 15:08:51;;;;;;;;;;;;;;;;;;5052055;28;20380;-46
2022/07/06 15:11:17;;;;;;;;;;;;;;;;;;5055780;28;19918;-46
2022/07/06 15:13:43;;;;;;;;;;;;;;;;;;5062535;28;19916;-45
2022/07/06 15:16:09;;;;;;;;;;;;;;;;;;5052550;28;20036;-45
2022/07/06 15:18:35;;;;;;;;;;;;;;;;;;5047314;28;19913;-46
2022/07/06 15:21:02;;;;;;;;;;;;;;;;;;5054936;28;19920;-45
2022/07/06 15:23:28;;;;;;;;;;;;;;;;;;5053790;28;20382;-46
2022/07/06 15:25:54;;;;;;;;;;;;;;;;;;5055765;28;19923;-46
2022/07/06 15:28:20;;;;;;;;;;;;;;;;;;5056167;28;19916;-47
2022/07/06 15:30:46;;;;;;;;;;;;;;;;;;5059081;28;19946;-46
2022/07/06 15:33:12;;;;;;;;;;;;;;;;;;5050891;28;19940;-47
2022/07/06 15:35:38;;;;;;;;;;;;;;;;;;5059877;28;20339;-44
2022/07/06 15:38:04;;;;;;;;;;;;;;;;;;5054115;28;19916;-45
2022/07/06 15:40:38;;;;;;;;;;;;;;;;;;5050180;28;19938;-45
2022/07/06 15:43:04;;;;;;;;;;;;;;;;;;5049456;28;19923;-45
2022/07/06 15:45:30;;;;;;;;;;;;;;;;;;5051682;28;20498;-45
2022/07/06 15:47:56;;;;;;;;;;;;;;;;;;5057390;28;19920;-46
2022/07/06 15:50:22;;;;;;;;;;;;;;;;;;5060902;28;19916;-46
2022/07/06 15:52:49;;;;;;;;;;;;;;;;;;5059613;28;20366;-46
2022/07/06 15:55:15;;;;;;;;;;;;;;;;;;5051937;28;20223;-46
2022/07/06 15:57:40;;;;;;;;;;;;;;;;;;5048425;28;19913;-46
2022/07/06 16:00:06;;;;;;;;;;;;;;;;;;5051656;28;19920;-46
2022/07/06 16:02:32;;;;;;;;;;;;;;;;;;5058287;28;19920;-46
2022/07/06 16:04:58;;;;;;;;;;;;;;;;;;5057968;28;19920;-47
2022/07/06 16:07:25;;;;;;;;;;;;;;;;;;5058074;28;19920;-45
2022/07/06 16:09:51;;;;;;;;;;;;;;;;;;5057520;28;20300;-44
2022/07/06 16:12:18;;;;;;;;;;;;;;;;;;5052430;28;19913;-44
2022/07/06 16:14:44;;;;;;;;;;;;;;;;;;5049535;28;19966;-47
2022/07/06 16:17:10;;;;;;;;;;;;;;;;;;5062907;28;20395;-46
2022/07/06 16:19:36;;;;;;;;;;;;;;;;;;5057545;28;20002;-45
2022/07/06 16:22:02;;;;;;;;;;;;;;;;;;5045641;28;19908;-49
2022/07/06 16:24:29;;;;;;;;;;;;;;;;;;5051403;28;19917;-45
2022/07/06 16:26:56;;;;;;;;;;;;;;;;;;5052698;28;20396;-44
2022/07/06 16:29:21;;;;;;;;;;;;;;;;;;5052714;28;19959;-46
2022/07/06 16:31:47;;;;;;;;;;;;;;;;;;5046030;28;20340;-48
2022/07/06 16:34:13;;;;;;;;;;;;;;;;;;5051820;28;19973;-48
2022/07/06 16:36:40;;;;;;;;;;;;;;;;;;5053165;28;19917;-51
2022/07/06 16:39:06;;;;;;;;;;;;;;;;;;5046324;28;19917;-47
2022/07/06 16:41:32;;;;;;;;;;;;;;;;;;5059526;28;19912;-49
2022/07/06 16:43:59;;;;;;;;;;;;;;;;;;5059871;28;20036;-47
2022/07/06 16:46:25;;;;;;;;;;;;;;;;;;5048834;28;19920;-46